createdAt,value
2019-03-25T00:02:00.080Z,99084.00
2019-03-25T00:04:31.605Z,99082.39
2019-03-25T00:07:02.522Z,99086.96
2019-03-25T00:09:33.470Z,99085.90
2019-03-25T00:12:04.565Z,99082.10
2019-03-25T00:14:35.493Z,99081.17
2019-03-25T00:17:06.432Z,99089.31
2019-03-25T00:19:37.684Z,99082.66
2019-03-25T00:22:09.341Z,99083.42
2019-03-25T00:24:40.234Z,99087.05
2019-03-25T00:27:11.311Z,99084.00
2019-03-25T00:29:42.172Z,99087.06
2019-03-25T00:32:13.014Z,99089.42
2019-03-25T00:34:44.628Z,99084.78
2019-03-25T00:37:15.569Z,99086.97
2019-03-25T00:39:47.068Z,99088.02
2019-03-25T00:42:18.670Z,99082.89
2019-03-25T00:44:49.903Z,99090.11
2019-03-25T00:47:21.315Z,99084.98
2019-03-25T00:49:52.201Z,99090.47
2019-03-25T00:52:22.995Z,99088.39
2019-03-25T00:54:53.828Z,99087.26
2019-03-25T00:57:24.690Z,99086.50
2019-03-25T00:59:56.435Z,99083.63
2019-03-25T01:02:27.751Z,99076.58
2019-03-25T01:04:58.621Z,99076.58
2019-03-25T01:07:29.429Z,99091.42
2019-03-25T01:10:00.567Z,99089.61
2019-03-25T01:12:31.426Z,99091.09
2019-03-25T01:15:02.245Z,99088.03
2019-03-25T01:17:34.570Z,99085.48
2019-03-25T01:20:06.883Z,99081.20
2019-03-25T01:22:38.236Z,99083.17
2019-03-25T01:25:09.391Z,99089.86
2019-03-25T01:27:40.189Z,99083.18
2019-03-25T01:30:11.536Z,99086.01
2019-03-25T01:32:42.436Z,99086.01
2019-03-25T01:35:14.054Z,99086.08
2019-03-25T01:37:44.974Z,99078.48
2019-03-25T01:40:15.992Z,99082.20
2019-03-25T01:42:47.074Z,99085.98
2019-03-25T01:45:17.955Z,99083.18
2019-03-25T01:47:48.757Z,99081.57
2019-03-25T01:50:20.106Z,99075.36
2019-03-25T01:52:50.966Z,99068.12
2019-03-25T01:55:22.076Z,99070.23
2019-03-25T01:57:53.966Z,99074.23
2019-03-25T02:00:25.081Z,99069.39
2019-03-25T02:02:56.225Z,99066.52
2019-03-25T02:05:27.060Z,99069.09
2019-03-25T02:07:58.513Z,99068.89
2019-03-25T02:10:29.468Z,99066.22
2019-03-25T02:13:00.570Z,99064.31
2019-03-25T02:15:31.893Z,99070.69
2019-03-25T02:18:03.119Z,99065.03
2019-03-25T02:20:34.237Z,99066.91
2019-03-25T02:23:06.990Z,99061.79
2019-03-25T02:25:38.084Z,99065.23
2019-03-25T02:28:08.911Z,99065.81
2019-03-25T02:30:39.810Z,99070.02
2019-03-25T02:33:10.573Z,99070.02
2019-03-25T02:35:41.525Z,99066.64
2019-03-25T02:38:12.445Z,99067.30
2019-03-25T02:40:43.273Z,99072.52
2019-03-25T02:43:14.128Z,99076.30
2019-03-25T02:45:45.269Z,99075.09
2019-03-25T02:48:16.492Z,99070.80
2019-03-25T02:50:47.364Z,99069.53
2019-03-25T02:53:18.215Z,99072.53
2019-03-25T02:55:49.366Z,99074.41
2019-03-25T02:58:20.575Z,99079.75
2019-03-25T03:00:51.737Z,99077.63
2019-03-25T03:03:23.604Z,99073.05
2019-03-25T03:05:54.779Z,99076.84
2019-03-25T03:08:25.629Z,99078.35
2019-03-25T03:10:56.422Z,99074.41
2019-03-25T03:13:28.299Z,99075.44
2019-03-25T03:15:59.141Z,99075.05
2019-03-25T03:19:37.436Z,99071.63
2019-03-25T03:22:08.978Z,99078.79
2019-03-25T03:24:40.114Z,99087.34
2019-03-25T03:27:10.984Z,99074.57
2019-03-25T03:29:42.057Z,99074.39
2019-03-25T03:32:12.914Z,99074.12
2019-03-25T03:34:44.309Z,99077.20
2019-03-25T03:37:15.546Z,99081.33
2019-03-25T03:39:47.411Z,99083.52
2019-03-25T03:42:19.446Z,99093.21
2019-03-25T03:44:50.610Z,99083.61
2019-03-25T03:47:21.752Z,99087.91
2019-03-25T03:49:52.556Z,99085.95
2019-03-25T03:52:23.336Z,99096.13
2019-03-25T03:54:54.457Z,99091.28
2019-03-25T03:57:26.215Z,99096.53
2019-03-25T03:59:58.352Z,99096.53
2019-03-25T04:02:29.426Z,99083.59
2019-03-25T04:05:00.560Z,99095.86
2019-03-25T04:07:32.472Z,99086.11
2019-03-25T04:10:03.225Z,99094.11
2019-03-25T04:12:34.012Z,99091.05
2019-03-25T04:15:04.966Z,99092.23
2019-03-25T04:17:35.787Z,99097.09
2019-03-25T04:20:06.753Z,99095.97
2019-03-25T04:22:37.947Z,99098.09
2019-03-25T04:25:09.247Z,99103.30
2019-03-25T04:27:40.607Z,99108.09
2019-03-25T04:30:11.590Z,99106.18
2019-03-25T04:32:42.365Z,99104.84
2019-03-25T04:35:13.096Z,99099.63
2019-03-25T04:37:43.930Z,99110.18
2019-03-25T04:40:14.837Z,99112.70
2019-03-25T04:42:46.088Z,99113.63
2019-03-25T04:45:17.166Z,99112.52
2019-03-25T04:47:48.369Z,99108.70
2019-03-25T04:50:19.588Z,99111.94
2019-03-25T04:52:50.696Z,99116.52
2019-03-25T04:55:22.628Z,99111.73
2019-03-25T04:57:53.421Z,99112.70
2019-03-25T05:00:49.756Z,99110.20
2019-03-25T05:03:20.972Z,99103.48
2019-03-25T05:05:52.257Z,99117.00
2019-03-25T05:08:24.096Z,99116.15
2019-03-25T05:10:54.916Z,99109.87
2019-03-25T05:13:26.311Z,99114.93
2019-03-25T05:15:57.300Z,99121.59
2019-03-25T05:18:29.167Z,99117.16
2019-03-25T05:21:00.373Z,99118.31
2019-03-25T05:23:31.162Z,99126.23
2019-03-25T05:26:01.990Z,99132.63
2019-03-25T05:28:33.022Z,99130.53
2019-03-25T05:31:04.255Z,99137.40
2019-03-25T05:33:35.504Z,99139.22
2019-03-25T05:36:06.768Z,99136.08
2019-03-25T05:38:38.720Z,99136.16
2019-03-25T05:41:09.942Z,99130.39
2019-03-25T05:43:42.001Z,99136.66
2019-03-25T05:46:13.278Z,99134.84
2019-03-25T05:48:44.368Z,99136.75
2019-03-25T05:51:15.239Z,99141.59
2019-03-25T05:53:46.976Z,99137.11
2019-03-25T05:56:18.494Z,99141.71
2019-03-25T05:58:50.331Z,99140.66
2019-03-25T06:01:21.545Z,99139.90
2019-03-25T06:03:52.528Z,99149.70
2019-03-25T06:06:23.421Z,99147.13
2019-03-25T06:08:54.254Z,99149.88
2019-03-25T06:11:25.159Z,99151.41
2019-03-25T06:13:56.103Z,99159.42
2019-03-25T06:16:27.154Z,99159.91
2019-03-25T06:18:58.060Z,99164.48
2019-03-25T06:21:29.512Z,99164.48
2019-03-25T06:24:00.502Z,99162.17
2019-03-25T06:26:31.402Z,99167.51
2019-03-25T06:29:03.637Z,99169.61
2019-03-25T06:31:34.545Z,99169.23
2019-03-25T06:34:05.493Z,99164.81
2019-03-25T06:36:36.936Z,99176.75
2019-03-25T06:39:08.764Z,99175.86
2019-03-25T06:41:39.613Z,99178.04
2019-03-25T06:44:10.945Z,99177.19
2019-03-25T06:46:42.273Z,99182.59
2019-03-25T06:49:13.612Z,99184.21
2019-03-25T06:51:45.268Z,99183.65
2019-03-25T06:54:16.323Z,99179.64
2019-03-25T06:56:47.278Z,99187.64
2019-03-25T06:59:18.130Z,99184.05
2019-03-25T07:01:49.333Z,99188.13
2019-03-25T07:04:20.688Z,99181.95
2019-03-25T07:06:53.040Z,99186.31
2019-03-25T07:09:23.924Z,99192.77
2019-03-25T07:11:55.187Z,99196.20
2019-03-25T07:14:31.552Z,99195.83
2019-03-25T07:17:03.039Z,99197.86
2019-03-25T07:19:34.586Z,99199.77
2019-03-25T07:22:05.745Z,99202.59
2019-03-25T07:24:37.095Z,99207.44
2019-03-25T07:27:08.017Z,99208.66
2019-03-25T07:29:39.310Z,99207.72
2019-03-25T07:32:10.955Z,99216.94
2019-03-25T07:34:42.221Z,99215.05
2019-03-25T07:37:13.301Z,99212.17
2019-03-25T07:39:44.877Z,99209.66
2019-03-25T07:42:16.262Z,99219.55
2019-03-25T07:44:47.515Z,99215.34
2019-03-25T07:47:18.424Z,99221.51
2019-03-25T07:49:49.776Z,99216.45
2019-03-25T07:52:20.684Z,99213.50
2019-03-25T07:54:51.598Z,99211.45
2019-03-25T07:57:22.439Z,99216.56
2019-03-25T07:59:53.359Z,99211.98
2019-03-25T08:02:24.871Z,99210.58
2019-03-25T08:04:56.345Z,99218.60
2019-03-25T08:07:27.302Z,99220.84
2019-03-25T08:09:59.176Z,99221.83
2019-03-25T08:12:31.057Z,99219.73
2019-03-25T08:15:02.552Z,99218.84
2019-03-25T08:17:35.085Z,99222.44
2019-03-25T08:20:08.059Z,99221.88
2019-03-25T08:22:40.327Z,99227.00
2019-03-25T08:25:12.101Z,99222.51
2019-03-25T08:27:44.541Z,99227.85
2019-03-25T08:30:16.360Z,99232.92
2019-03-25T08:32:47.528Z,99226.42
2019-03-25T08:35:18.740Z,99227.30
2019-03-25T08:37:50.258Z,99222.01
2019-03-25T08:40:22.051Z,99222.01
2019-03-25T08:42:54.124Z,99224.42
2019-03-25T08:45:25.485Z,99227.85
2019-03-25T08:47:56.486Z,99227.30
2019-03-25T08:50:27.439Z,99220.14
2019-03-25T08:52:58.656Z,99224.11
2019-03-25T08:55:29.603Z,99214.77
2019-03-25T08:58:11.566Z,99224.16
2019-03-25T09:00:33.602Z,99225.13
2019-03-25T09:03:04.386Z,99228.66
2019-03-25T09:05:35.558Z,99223.48
2019-03-25T09:08:07.200Z,99226.45
2019-03-25T09:10:38.880Z,99228.95
2019-03-25T09:13:10.077Z,99234.09
2019-03-25T09:15:41.663Z,99246.47
2019-03-25T09:18:12.675Z,99241.09
2019-03-25T09:20:43.683Z,99244.48
2019-03-25T09:23:15.006Z,99247.52
2019-03-25T09:25:45.954Z,99251.24
2019-03-25T09:28:24.174Z,99254.13
2019-03-25T09:31:18.584Z,99255.91
2019-03-25T09:33:50.401Z,99253.74
2019-03-25T09:36:22.753Z,99249.30
2019-03-25T09:38:54.502Z,99242.94
2019-03-25T09:41:25.336Z,99250.17
2019-03-25T09:43:56.692Z,99249.80
2019-03-25T09:46:29.007Z,99251.20
2019-03-25T09:49:00.160Z,99249.11
2019-03-25T09:51:31.476Z,99241.97
2019-03-25T09:54:02.728Z,99244.83
2019-03-25T09:56:33.681Z,99247.13
2019-03-25T09:59:05.414Z,99233.95
2019-03-25T10:01:36.768Z,99244.42
2019-03-25T10:04:07.519Z,99243.95
2019-03-25T10:06:39.767Z,99246.59
2019-03-25T10:09:12.035Z,99244.30
2019-03-25T10:11:42.826Z,99244.80
2019-03-25T10:14:14.223Z,99249.88
2019-03-25T10:16:46.202Z,99242.53
2019-03-25T10:19:17.533Z,99246.66
2019-03-25T10:21:49.694Z,99246.06
2019-03-25T10:24:27.606Z,99244.81
2019-03-25T10:26:53.169Z,99242.64
2019-03-25T10:29:27.540Z,99243.40
2019-03-25T10:31:58.781Z,99243.53
2019-03-25T10:34:29.962Z,99241.19
2019-03-25T10:37:00.828Z,99245.98
2019-03-25T10:39:32.135Z,99250.05
2019-03-25T10:42:03.102Z,99251.92
2019-03-25T10:44:33.892Z,99248.41
2019-03-25T10:47:05.032Z,99242.60
2019-03-25T10:49:36.467Z,99242.55
2019-03-25T10:52:07.748Z,99234.91
2019-03-25T10:54:40.046Z,99239.25
2019-03-25T10:57:11.553Z,99243.56
2019-03-25T10:59:42.726Z,99239.17
2019-03-25T11:02:13.955Z,99237.61
2019-03-25T11:04:44.827Z,99241.17
2019-03-25T11:07:15.637Z,99238.34
2019-03-25T11:09:46.826Z,99235.30
2019-03-25T11:12:18.677Z,99237.48
2019-03-25T11:14:49.466Z,99225.79
2019-03-25T11:17:20.578Z,99231.78
2019-03-25T11:19:51.481Z,99225.67
2019-03-25T11:22:22.881Z,99227.36
2019-03-25T11:24:53.758Z,99225.98
2019-03-25T11:27:25.585Z,99234.27
2019-03-25T11:29:56.493Z,99232.30
2019-03-25T11:32:27.875Z,99228.43
2019-03-25T11:34:58.669Z,99223.65
2019-03-25T11:37:29.549Z,99228.05
2019-03-25T11:40:01.144Z,99238.89
2019-03-25T11:42:33.319Z,99234.06
2019-03-25T11:45:04.289Z,99234.38
2019-03-25T11:47:35.229Z,99234.64
2019-03-25T11:50:06.817Z,99230.87
2019-03-25T11:52:37.719Z,99229.88
2019-03-25T11:55:08.933Z,99235.21
2019-03-25T11:57:40.002Z,99239.33
2019-03-25T12:00:11.659Z,99233.67
2019-03-25T12:02:43.044Z,99231.09
2019-03-25T12:05:14.013Z,99225.72
2019-03-25T12:07:45.228Z,99223.58
2019-03-25T12:10:16.427Z,99220.25
2019-03-25T12:12:47.728Z,99224.03
2019-03-25T12:15:18.669Z,99229.01
2019-03-25T12:17:50.134Z,99222.00
2019-03-25T12:20:21.274Z,99218.83
2019-03-25T12:22:52.655Z,99216.50
2019-03-25T12:25:23.968Z,99208.00
2019-03-25T12:27:55.195Z,99208.05
2019-03-25T12:30:27.484Z,99199.53
2019-03-25T12:33:04.073Z,99189.25
2019-03-25T12:35:30.978Z,99195.27
2019-03-25T12:38:02.339Z,99195.45
2019-03-25T12:40:33.264Z,99192.45
2019-03-25T12:43:04.217Z,99195.45
2019-03-25T12:45:35.350Z,99189.42
2019-03-25T12:48:06.783Z,99195.22
2019-03-25T12:50:37.808Z,99185.80
2019-03-25T12:53:09.210Z,99191.63
2019-03-25T12:55:40.612Z,99191.02
2019-03-25T12:58:12.456Z,99190.14
2019-03-25T13:00:45.002Z,99171.72
2019-03-25T13:03:15.923Z,99178.87
2019-03-25T13:05:47.127Z,99177.23
2019-03-25T13:08:18.899Z,99177.19
2019-03-25T13:10:49.853Z,99174.75
2019-03-25T13:13:20.689Z,99171.94
2019-03-25T13:15:52.007Z,99168.49
2019-03-25T13:18:23.451Z,99166.04
2019-03-25T13:20:54.896Z,99166.45
2019-03-25T13:23:25.935Z,99162.06
2019-03-25T13:25:57.415Z,99162.06
2019-03-25T13:28:28.235Z,99160.14
2019-03-25T13:30:59.363Z,99157.13
2019-03-25T13:33:30.255Z,99157.94
2019-03-25T13:36:01.510Z,99151.98
2019-03-25T13:38:33.210Z,99158.42
2019-03-25T13:41:04.243Z,99142.14
2019-03-25T13:43:35.018Z,99146.28
2019-03-25T13:46:06.011Z,99154.90
2019-03-25T13:48:36.924Z,99144.88
2019-03-25T13:51:07.752Z,99158.23
2019-03-25T13:53:39.052Z,99155.34
2019-03-25T13:56:10.238Z,99155.34
2019-03-25T13:58:41.006Z,99153.53
2019-03-25T14:01:12.747Z,99164.09
2019-03-25T14:03:44.299Z,99154.62
2019-03-25T14:06:15.053Z,99149.34
2019-03-25T14:08:45.926Z,99151.54
2019-03-25T14:11:17.528Z,99139.64
2019-03-25T14:13:49.503Z,99151.16
2019-03-25T14:16:20.930Z,99147.50
2019-03-25T14:18:56.572Z,99154.91
2019-03-25T14:21:29.780Z,99143.78
2019-03-25T14:24:00.929Z,99150.70
2019-03-25T14:26:31.859Z,99142.80
2019-03-25T14:29:02.772Z,99151.33
2019-03-25T14:31:33.547Z,99151.08
2019-03-25T14:34:04.388Z,99150.02
2019-03-25T14:36:36.003Z,99146.45
2019-03-25T14:39:08.030Z,99150.20
2019-03-25T14:41:43.014Z,99143.27
2019-03-25T14:44:14.178Z,99142.23
2019-03-25T14:46:44.918Z,99137.97
2019-03-25T14:49:15.717Z,99143.30
2019-03-25T14:51:46.492Z,99150.66
2019-03-25T14:54:17.335Z,99147.02
2019-03-25T14:56:48.187Z,99150.45
2019-03-25T14:59:19.363Z,99147.81
2019-03-25T15:01:50.554Z,99155.92
2019-03-25T15:04:22.619Z,99153.27
2019-03-25T15:06:53.573Z,99154.48
2019-03-25T15:09:24.803Z,99159.91
2019-03-25T15:11:55.655Z,99156.73
2019-03-25T15:14:26.858Z,99158.97
2019-03-25T15:16:57.627Z,99159.06
2019-03-25T15:19:28.432Z,99149.91
2019-03-25T15:21:59.215Z,99164.56
2019-03-25T15:24:31.100Z,99167.36
2019-03-25T15:27:02.871Z,99170.08
2019-03-25T15:29:34.379Z,99179.63
2019-03-25T15:32:05.610Z,99186.16
2019-03-25T15:34:36.518Z,99192.80
2019-03-25T15:37:07.903Z,99192.80
2019-03-25T15:39:46.789Z,99195.55
2019-03-25T15:42:12.240Z,99184.46
2019-03-25T15:44:43.371Z,99176.49
2019-03-25T15:47:14.345Z,99175.84
2019-03-25T15:49:45.187Z,99180.35
2019-03-25T15:52:17.260Z,99172.91
2019-03-25T15:54:48.457Z,99181.22
2019-03-25T15:57:19.511Z,99174.66
2019-03-25T15:59:51.466Z,99182.15
2019-03-25T16:02:22.607Z,99171.33
2019-03-25T16:04:53.346Z,99177.84
2019-03-25T16:07:24.877Z,99180.45
2019-03-25T16:09:56.349Z,99178.31
2019-03-25T16:12:27.156Z,99172.58
2019-03-25T16:14:59.416Z,99179.34
2019-03-25T16:17:30.351Z,99172.81
2019-03-25T16:20:01.819Z,99175.63
2019-03-25T16:22:32.993Z,99165.22
2019-03-25T16:25:03.876Z,99165.67
2019-03-25T16:27:35.912Z,99170.28
2019-03-25T16:30:07.889Z,99169.14
2019-03-25T16:32:38.995Z,99161.69
2019-03-25T16:35:11.539Z,99169.95
2019-03-25T16:37:43.155Z,99167.66
2019-03-25T16:40:15.317Z,99175.15
2019-03-25T16:42:46.153Z,99179.09
2019-03-25T16:45:16.966Z,99180.38
2019-03-25T16:47:48.540Z,99184.73
2019-03-25T16:50:19.374Z,99185.37
2019-03-25T16:52:50.502Z,99193.11
2019-03-25T16:55:21.610Z,99189.44
2019-03-25T16:57:53.206Z,99201.66
2019-03-25T17:00:27.582Z,99207.41
2019-03-25T17:02:57.946Z,99207.49
2019-03-25T17:05:28.843Z,99208.20
2019-03-25T17:07:59.669Z,99219.55
2019-03-25T17:10:30.537Z,99222.94
2019-03-25T17:13:02.147Z,99218.94
2019-03-25T17:15:33.843Z,99220.90
2019-03-25T17:18:05.519Z,99210.88
2019-03-25T17:20:36.649Z,99211.11
2019-03-25T17:23:08.237Z,99211.38
2019-03-25T17:25:39.081Z,99213.73
2019-03-25T17:28:10.310Z,99211.12
2019-03-25T17:30:44.474Z,99212.03
2019-03-25T17:33:15.327Z,99218.44
2019-03-25T17:35:46.122Z,99221.44
2019-03-25T17:38:17.410Z,99220.03
2019-03-25T17:40:48.201Z,99221.54
2019-03-25T17:43:19.034Z,99224.80
2019-03-25T17:45:50.466Z,99230.50
2019-03-25T17:48:21.326Z,99233.92
2019-03-25T17:50:53.046Z,99238.11
2019-03-25T17:53:24.066Z,99239.44
2019-03-25T17:55:55.164Z,99238.37
2019-03-25T17:58:26.389Z,99232.75
2019-03-25T18:01:31.759Z,99245.20
2019-03-25T18:03:54.095Z,99238.83
2019-03-25T18:06:24.971Z,99251.25
2019-03-25T18:08:56.204Z,99252.50
2019-03-25T18:11:27.119Z,99253.43
2019-03-25T18:13:58.001Z,99261.60
2019-03-25T18:16:28.889Z,99260.80
2019-03-25T18:19:00.110Z,99263.64
2019-03-25T18:21:31.383Z,99264.20
2019-03-25T18:24:02.250Z,99271.00
2019-03-25T18:26:33.073Z,99270.41
2019-03-25T18:29:03.968Z,99271.88
2019-03-25T18:31:42.886Z,99265.83
2019-03-25T18:34:16.265Z,99275.69
2019-03-25T18:36:50.968Z,99270.15
2019-03-25T18:39:21.811Z,99280.02
2019-03-25T18:41:52.624Z,99284.11
2019-03-25T18:44:23.642Z,99285.27
2019-03-25T18:46:54.621Z,99296.23
2019-03-25T18:49:26.608Z,99291.34
2019-03-25T18:51:57.443Z,99299.06
2019-03-25T18:54:28.475Z,99294.30
2019-03-25T18:56:59.734Z,99302.45
2019-03-25T18:59:30.944Z,99307.39
2019-03-25T19:02:02.682Z,99307.69
2019-03-25T19:04:33.547Z,99307.86
2019-03-25T19:07:05.993Z,99317.58
2019-03-25T19:09:36.915Z,99315.40
2019-03-25T19:12:07.974Z,99317.84
2019-03-25T19:14:39.933Z,99318.86
2019-03-25T19:17:10.695Z,99323.63
2019-03-25T19:19:41.553Z,99324.89
2019-03-25T19:22:14.724Z,99329.53
2019-03-25T19:24:46.949Z,99328.48
2019-03-25T19:27:18.405Z,99329.83
2019-03-25T19:29:50.691Z,99333.81
2019-03-25T19:32:22.519Z,99332.02
2019-03-25T19:34:53.612Z,99331.01
2019-03-25T19:37:25.872Z,99335.67
2019-03-25T19:39:56.779Z,99340.76
2019-03-25T19:42:29.252Z,99338.11
2019-03-25T19:45:00.451Z,99336.58
2019-03-25T19:47:31.336Z,99335.09
2019-03-25T19:50:02.179Z,99330.69
2019-03-25T19:52:34.160Z,99328.98
2019-03-25T19:55:05.439Z,99331.27
2019-03-25T19:57:37.506Z,99336.59
2019-03-25T20:00:09.665Z,99343.52
2019-03-25T20:02:40.886Z,99343.52
2019-03-25T20:05:11.656Z,99355.19
2019-03-25T20:07:42.500Z,99364.97
2019-03-25T20:10:32.048Z,99361.83
2019-03-25T20:13:04.270Z,99364.30
2019-03-25T20:15:45.424Z,99366.81
2019-03-25T20:18:08.667Z,99371.73
2019-03-25T20:20:40.017Z,99378.83
2019-03-25T20:23:11.296Z,99382.44
2019-03-25T20:25:44.256Z,99390.93
2019-03-25T20:28:15.215Z,99389.10
2019-03-25T20:30:46.510Z,99390.20
2019-03-25T20:33:17.856Z,99391.48
2019-03-25T20:35:49.317Z,99380.89
2019-03-25T20:38:20.564Z,99376.59
2019-03-25T20:40:51.531Z,99380.90
2019-03-25T20:43:24.071Z,99385.36
2019-03-25T20:45:55.528Z,99377.98
2019-03-25T20:48:26.556Z,99378.56
2019-03-25T20:50:57.614Z,99381.16
2019-03-25T20:53:29.499Z,99370.70
2019-03-25T20:56:00.351Z,99365.64
2019-03-25T20:58:31.287Z,99372.14
2019-03-25T21:01:02.600Z,99379.59
2019-03-25T21:03:34.181Z,99378.73
2019-03-25T21:06:05.036Z,99378.50
2019-03-25T21:08:37.154Z,99391.23
2019-03-25T21:11:08.597Z,99374.97
2019-03-25T21:13:39.919Z,99393.41
2019-03-25T21:16:10.731Z,99392.79
2019-03-25T21:18:41.912Z,99390.90
2019-03-25T21:21:13.061Z,99390.59
2019-03-25T21:23:44.183Z,99393.97
2019-03-25T21:26:15.372Z,99395.59
2019-03-25T21:28:46.194Z,99397.23
2019-03-25T21:31:17.460Z,99397.47
2019-03-25T21:33:48.604Z,99392.08
2019-03-25T21:36:19.803Z,99392.33
2019-03-25T21:38:50.576Z,99402.38
2019-03-25T21:41:21.409Z,99401.83
2019-03-25T21:43:52.379Z,99406.88
2019-03-25T21:46:24.806Z,99417.07
2019-03-25T21:48:55.663Z,99426.55
2019-03-25T21:51:27.246Z,99431.27
2019-03-25T21:53:58.120Z,99434.09
2019-03-25T21:56:29.707Z,99446.98
2019-03-25T21:59:00.862Z,99449.12
2019-03-25T22:01:32.354Z,99446.34
2019-03-25T22:04:03.117Z,99455.66
2019-03-25T22:06:34.313Z,99455.47
2019-03-25T22:09:07.701Z,99461.48
2019-03-25T22:11:38.516Z,99465.11
2019-03-25T22:14:09.661Z,99472.27
2019-03-25T22:16:42.019Z,99468.66
2019-03-25T22:19:13.076Z,99473.56
2019-03-25T22:21:44.531Z,99478.30
2019-03-25T22:24:16.033Z,99478.08
2019-03-25T22:26:47.092Z,99469.20
2019-03-25T22:29:18.776Z,99476.21
2019-03-25T22:31:50.126Z,99480.75
2019-03-25T22:34:20.955Z,99485.45
2019-03-25T22:36:51.695Z,99483.70
2019-03-25T22:39:23.134Z,99480.67
2019-03-25T22:41:54.906Z,99475.55
2019-03-25T22:44:26.160Z,99491.59
2019-03-25T22:46:57.293Z,99491.28
2019-03-25T22:49:28.755Z,99492.86
2019-03-25T22:51:59.855Z,99489.05
2019-03-25T22:54:30.716Z,99490.68
2019-03-25T22:57:01.776Z,99493.33
2019-03-25T22:59:33.730Z,99493.98
2019-03-25T23:02:05.527Z,99498.73
2019-03-25T23:04:36.967Z,99498.47
2019-03-25T23:07:08.475Z,99492.41
2019-03-25T23:09:39.935Z,99501.08
2019-03-25T23:12:11.782Z,99503.28
2019-03-25T23:14:42.958Z,99509.08
2019-03-25T23:17:13.690Z,99512.87
2019-03-25T23:19:45.348Z,99517.88
2019-03-25T23:22:17.069Z,99510.67
2019-03-25T23:24:52.430Z,99506.20
2019-03-25T23:27:23.859Z,99502.39
2019-03-25T23:29:54.622Z,99502.94
2019-03-25T23:32:25.543Z,99505.92
2019-03-25T23:34:57.207Z,99509.19
2019-03-25T23:37:29.124Z,99511.70
2019-03-25T23:40:00.470Z,99516.73
2019-03-25T23:42:31.658Z,99504.92
2019-03-25T23:45:02.449Z,99498.30
2019-03-25T23:47:34.071Z,99502.48
2019-03-25T23:50:05.291Z,99506.97
2019-03-25T23:52:36.126Z,99504.99
2019-03-25T23:55:07.145Z,99510.42
2019-03-25T23:57:37.932Z,99508.58
